createdAt,value
2023-02-04T00:00:42.666Z,8.30
2023-02-04T00:07:43.168Z,8.20
2023-02-04T00:14:44.435Z,8.30
2023-02-04T00:21:44.542Z,8.20
2023-02-04T00:28:44.868Z,8.20
2023-02-04T00:35:45.278Z,8.20
2023-02-04T00:42:45.812Z,8.10
2023-02-04T00:49:46.304Z,8.20
2023-02-04T00:56:46.854Z,8.10
2023-02-04T01:03:46.944Z,8.10
2023-02-04T01:10:47.782Z,8.10
2023-02-04T01:17:48.555Z,8.10
2023-02-04T01:24:49.787Z,8.00
2023-02-04T01:32:09.338Z,8.00
2023-02-04T01:39:09.730Z,8.00
2023-02-04T01:46:10.613Z,8.00
2023-02-04T01:53:11.007Z,7.90
2023-02-04T02:00:28.567Z,7.90
2023-02-04T02:07:29.086Z,7.90
2023-02-04T02:14:29.523Z,7.90
2023-02-04T02:21:39.342Z,7.90
2023-02-04T02:28:39.980Z,7.80
2023-02-04T02:35:43.418Z,7.70
2023-02-04T02:42:47.993Z,7.70
2023-02-04T02:49:50.842Z,7.60
2023-02-04T02:56:52.126Z,7.60
2023-02-04T03:03:53.786Z,7.60
2023-02-04T03:10:54.424Z,7.60
2023-02-04T03:17:56.556Z,7.50
2023-02-04T03:24:58.342Z,7.50
2023-02-04T03:32:00.059Z,7.50
2023-02-04T03:39:01.894Z,7.50
2023-02-04T03:46:02.583Z,7.40
2023-02-04T03:53:03.038Z,7.40
2023-02-04T04:00:04.067Z,7.40
2023-02-04T04:07:12.093Z,7.40
2023-02-04T04:14:12.653Z,7.40
2023-02-04T04:21:13.479Z,7.30
2023-02-04T04:28:13.806Z,7.30
2023-02-04T04:35:14.329Z,7.20
2023-02-04T04:42:14.909Z,7.20
2023-02-04T04:49:16.372Z,7.10
2023-02-04T04:56:16.657Z,7.20
2023-02-04T05:03:17.060Z,7.10
2023-02-04T05:10:17.728Z,7.10
2023-02-04T05:17:18.344Z,7.10
2023-02-04T05:24:18.692Z,7.00
2023-02-04T05:31:19.174Z,7.00
2023-02-04T05:38:19.475Z,6.90
2023-02-04T05:45:20.040Z,6.90
2023-02-04T05:52:20.447Z,6.90
2023-02-04T05:59:20.880Z,6.90
2023-02-04T06:06:21.355Z,6.80
2023-02-04T06:13:21.799Z,6.80
2023-02-04T06:20:22.182Z,6.80
2023-02-04T06:27:25.216Z,6.80
2023-02-04T06:34:25.482Z,6.70
2023-02-04T06:41:25.959Z,6.70
2023-02-04T06:48:26.301Z,6.70
2023-02-04T06:55:26.847Z,6.70
2023-02-04T07:02:27.466Z,6.70
2023-02-04T07:09:27.684Z,6.60
2023-02-04T07:16:28.065Z,6.70
2023-02-04T07:23:28.921Z,6.70
2023-02-04T07:30:30.182Z,6.70
2023-02-04T07:37:30.713Z,6.70
2023-02-04T07:44:31.265Z,6.80
2023-02-04T07:51:31.965Z,6.80
2023-02-04T07:58:32.568Z,6.80
2023-02-04T08:05:32.909Z,6.80
2023-02-04T08:12:33.609Z,6.80
2023-02-04T08:19:33.712Z,6.90
2023-02-04T08:26:34.101Z,6.90
2023-02-04T08:33:34.560Z,7.00
2023-02-04T08:40:34.886Z,6.90
2023-02-04T08:47:35.283Z,6.90
2023-02-04T08:54:35.880Z,7.00
2023-02-04T09:01:36.291Z,7.00
2023-02-04T09:08:36.937Z,7.00
2023-02-04T09:15:37.396Z,7.00
2023-02-04T09:22:37.754Z,7.20
2023-02-04T09:29:38.418Z,7.20
2023-02-04T09:36:39.113Z,7.20
2023-02-04T09:43:42.337Z,7.30
2023-02-04T09:50:42.734Z,7.40
2023-02-04T09:57:43.315Z,7.50
2023-02-04T10:04:43.731Z,7.60
2023-02-04T10:11:47.676Z,7.70
2023-02-04T10:18:48.202Z,7.80
2023-02-04T10:25:48.554Z,8.00
2023-02-04T10:32:49.819Z,8.00
2023-02-04T10:39:50.163Z,8.00
2023-02-04T10:46:58.002Z,8.10
2023-02-04T10:54:16.974Z,8.30
2023-02-04T11:01:17.343Z,8.40
2023-02-04T11:08:30.877Z,8.60
2023-02-04T11:15:50.980Z,8.70
2023-02-04T11:22:53.832Z,8.70
2023-02-04T11:30:19.787Z,8.80
2023-02-04T11:37:37.227Z,8.80
2023-02-04T11:44:37.641Z,8.70
2023-02-04T11:51:38.354Z,8.80
2023-02-04T11:58:41.929Z,8.90
2023-02-04T12:05:44.523Z,9.00
2023-02-04T12:12:51.938Z,9.00
2023-02-04T12:19:52.419Z,9.10
2023-02-04T12:26:52.788Z,9.10
2023-02-04T12:33:54.171Z,9.10
2023-02-04T12:40:54.372Z,9.20
2023-02-04T12:47:54.909Z,9.40
2023-02-04T12:54:55.388Z,9.50
2023-02-04T13:01:55.893Z,9.50
2023-02-04T13:08:56.342Z,9.50
2023-02-04T13:15:56.825Z,9.60
2023-02-04T13:22:57.257Z,9.70
2023-02-04T13:29:58.265Z,9.80
2023-02-04T13:36:58.767Z,9.90
2023-02-04T13:43:59.101Z,10.00
2023-02-04T13:50:59.617Z,10.20
2023-02-04T13:57:59.996Z,10.40
2023-02-04T14:05:01.541Z,10.60
2023-02-04T14:12:02.218Z,10.60
2023-02-04T14:19:02.793Z,10.40
2023-02-04T14:26:03.817Z,10.50
2023-02-04T14:33:04.403Z,10.70
2023-02-04T14:40:05.886Z,10.80
2023-02-04T14:47:06.411Z,11.00
2023-02-04T14:54:06.905Z,11.00
2023-02-04T15:01:07.466Z,10.90
2023-02-04T15:08:07.775Z,10.70
2023-02-04T15:15:08.633Z,10.50
2023-02-04T15:22:08.949Z,10.40
2023-02-04T15:29:09.763Z,10.20
2023-02-04T15:36:09.932Z,10.10
2023-02-04T15:43:10.331Z,10.00
2023-02-04T15:50:14.821Z,9.80
2023-02-04T15:57:15.297Z,9.60
2023-02-04T16:04:15.892Z,9.40
2023-02-04T16:11:16.566Z,9.40
2023-02-04T16:18:16.880Z,9.30
2023-02-04T16:25:17.631Z,9.30
2023-02-04T16:32:18.129Z,9.20
2023-02-04T16:39:18.563Z,9.20
2023-02-04T16:46:19.309Z,9.10
2023-02-04T16:53:19.661Z,9.00
2023-02-04T17:00:20.411Z,9.00
2023-02-04T17:07:20.785Z,8.80
2023-02-04T17:14:22.910Z,8.70
2023-02-04T17:21:29.450Z,8.50
2023-02-04T17:28:29.593Z,8.40
2023-02-04T17:35:30.711Z,8.20
2023-02-04T17:42:31.597Z,8.20
2023-02-04T17:49:33.653Z,8.10
2023-02-04T17:56:35.369Z,8.00
2023-02-04T18:03:35.567Z,8.00
2023-02-04T18:10:39.174Z,8.00
2023-02-04T18:17:39.292Z,8.00
2023-02-04T18:24:42.746Z,7.90
2023-02-04T18:31:52.689Z,7.90
2023-02-04T18:38:54.309Z,7.80
2023-02-04T18:45:57.015Z,7.80
2023-02-04T18:53:15.406Z,7.80
2023-02-04T19:00:27.539Z,7.80
2023-02-04T19:07:28.056Z,7.80
2023-02-04T19:14:38.921Z,7.80
2023-02-04T19:21:38.997Z,7.70
2023-02-04T19:28:39.748Z,7.70
2023-02-04T19:35:43.172Z,7.70
2023-02-04T19:42:44.352Z,7.70
2023-02-04T19:49:44.500Z,7.80
2023-02-04T19:56:45.385Z,7.80
2023-02-04T20:03:47.309Z,7.80
2023-02-04T20:10:47.465Z,7.80
2023-02-04T20:17:48.541Z,7.80
2023-02-04T20:24:49.893Z,7.80
2023-02-04T20:31:50.406Z,7.80
2023-02-04T20:38:52.886Z,7.70
2023-02-04T20:46:00.255Z,7.70
2023-02-04T20:53:16.145Z,7.60
2023-02-04T21:00:29.574Z,7.60
2023-02-04T21:07:30.433Z,7.50
2023-02-04T21:14:31.003Z,7.50
2023-02-04T21:21:31.350Z,7.40
2023-02-04T21:28:32.368Z,7.40
2023-02-04T21:35:33.044Z,7.40
2023-02-04T21:42:33.579Z,7.40
2023-02-04T21:49:33.933Z,7.30
2023-02-04T21:56:34.390Z,7.30
2023-02-04T22:03:35.260Z,7.20
2023-02-04T22:10:35.444Z,7.20
2023-02-04T22:17:35.883Z,7.20
2023-02-04T22:24:36.232Z,7.20
2023-02-04T22:31:36.527Z,7.30
2023-02-04T22:38:36.742Z,7.30
2023-02-04T22:45:40.343Z,7.20
2023-02-04T22:52:42.989Z,7.20
2023-02-04T22:59:44.134Z,7.20
2023-02-04T23:06:44.547Z,7.20
2023-02-04T23:13:46.224Z,7.20
2023-02-04T23:20:46.382Z,7.20
2023-02-04T23:27:47.116Z,7.20
2023-02-04T23:34:47.229Z,7.20
2023-02-04T23:41:51.225Z,7.20
2023-02-04T23:48:51.263Z,7.20
2023-02-04T23:55:51.849Z,7.20
